Flight Track Log - Related Links

Times and Time Zones

All times are in EDT time to prevent confusion due to time zone crossing. See the WEW1540 flight status page for this flight to view local times or setup timezone preferences in your user account.

Time Position Orientation Groundspeed Altitude Reporting Facility
EDT Latitude Longitude Course Direction KTS MPH feet Rate Location/Type
Wed 08:04:10 PM 50.3500 -107.2500 73° East 190 219 9,000  Level Winnipeg Center
Wed 08:05:10 PM 50.3667 -107.1667 73° East 190 219 9,000  Level Winnipeg Center
Wed 08:06:10 PM 50.3667 -107.0667 90° East 190 219 9,000  Level Winnipeg Center
Wed 08:07:10 PM 50.3833 -106.9833 73° East 190 219 9,000 -50 Level Winnipeg Center
Wed 08:08:10 PM 50.3833 -106.9000 90° East 200 230 8,900  Descending Winnipeg Center
Wed 08:09:10 PM 50.4167 -106.8333 52° Northeast 190 219 9,000 50 Climbing Winnipeg Center
Wed 08:10:10 PM 50.4167 -106.7500 90° East 190 219 9,000  Level Winnipeg Center
Wed 08:11:10 PM 50.4333 -106.6500 75° East 200 230 9,000 50 Level Winnipeg Center
Wed 08:12:10 PM 50.4333 -106.5667 90° East 200 230 9,100 50 Climbing Winnipeg Center
Wed 08:13:10 PM 50.4167 -106.4833 107° East 200 230 9,100 -50 Level Winnipeg Center
Wed 08:14:10 PM 50.4333 -106.3833 75° East 200 230 9,000 -50 Descending Winnipeg Center
Wed 08:15:10 PM 50.4167 -106.3000 107° East 200 230 9,000  Level Winnipeg Center
Wed 08:16:10 PM 50.4333 -106.2333 69° East 200 230 9,000  Level Winnipeg Center
Wed 08:17:10 PM 50.4167 -106.1500 107° East 200 230 9,000 50 Level Winnipeg Center
Wed 08:18:10 PM 50.4000 -106.0667 107° East 200 230 9,100  Climbing Winnipeg Center
Wed 08:19:10 PM 50.4000 -105.9667 90° East 200 230 9,000  Descending Winnipeg Center
Wed 08:20:10 PM 50.3833 -105.8833 107° East 200 230 9,100 50 Climbing Winnipeg Center
Wed 08:21:10 PM 50.4000 -105.8000 73° East 190 219 9,100  Level Winnipeg Center
Wed 08:22:10 PM 50.3833 -105.7167 107° East 200 230 9,100 -50 Level Winnipeg Center
Wed 08:23:10 PM 50.3833 -105.6333 90° East 190 219 9,000 -250 Descending Winnipeg Center
Wed 08:24:10 PM 50.4000 -105.5333 75° East 200 230 8,600 -400 Descending Winnipeg Center
Wed 08:25:10 PM 50.4000 -105.4500 90° East 200 230 8,200 -500 Descending Winnipeg Center
Wed 08:26:10 PM 50.4000 -105.3833 90° East 200 230 7,600 -700 Descending Winnipeg Center
Wed 08:27:10 PM 50.4000 -105.2667 90° East 200 230 6,800 -700 Descending Winnipeg Center
Wed 08:28:10 PM 50.4000 -105.2000 90° East 190 219 6,200 -600 Descending Winnipeg Center
Wed 08:29:10 PM 50.4167 -105.1167 73° East 180 207 5,600 -800 Descending Winnipeg Center
Wed 08:30:10 PM 50.4000 -105.0333 107° East 180 207 4,600 -850 Descending Winnipeg Center
Wed 08:31:10 PM 50.4000 -104.9833 90° East 170 196 3,900 -450 Descending Winnipeg Center
Wed 08:32:10 PM 50.4167 -104.9000 73° East 160 184 3,700 -250 Descending Winnipeg Center
Wed 08:33:10 PM 50.4167 -104.8500 90° East 130 150 3,400 -350 Descending Winnipeg Center
Wed 08:34:10 PM 50.4167 -104.8000 90° East 120 138 3,000 -400 Descending Winnipeg Center
Wed 08:35:10 PM 50.4000 -104.7500 118° Southeast 120 138 2,600 -550 Descending Winnipeg Center
Wed 08:36:10 PM 50.4000 -104.7000 90° East 110 127 1,900 -700 Descending Winnipeg Center

Login

Don't have an account? Register now (free) for customized features, flight alerts, and more!